sensor_id;sensor_type;location;lat;lon;timestamp;P1;durP1;ratioP1;P2;durP2;ratioP2
8044;SDS011;4065;48.754;9.982;2023-04-24T00:02:44;7.95;;;5.82;;
8044;SDS011;4065;48.754;9.982;2023-04-24T00:06:07;3.47;;;2.78;;
8044;SDS011;4065;48.754;9.982;2023-04-24T00:09:29;2.92;;;2.38;;
8044;SDS011;4065;48.754;9.982;2023-04-24T00:12:52;3.92;;;2.80;;
8044;SDS011;4065;48.754;9.982;2023-04-24T00:16:15;3.00;;;2.70;;
8044;SDS011;4065;48.754;9.982;2023-04-24T00:19:37;5.03;;;3.60;;
8044;SDS011;4065;48.754;9.982;2023-04-24T00:22:59;9.18;;;5.82;;
8044;SDS011;4065;48.754;9.982;2023-04-24T00:26:21;6.35;;;4.43;;
8044;SDS011;4065;48.754;9.982;2023-04-24T00:29:43;3.10;;;2.80;;
8044;SDS011;4065;48.754;9.982;2023-04-24T00:33:07;3.72;;;2.80;;
8044;SDS011;4065;48.754;9.982;2023-04-24T00:36:29;5.70;;;2.40;;
8044;SDS011;4065;48.754;9.982;2023-04-24T00:39:52;3.17;;;2.80;;
8044;SDS011;4065;48.754;9.982;2023-04-24T00:43:14;2.80;;;2.60;;
8044;SDS011;4065;48.754;9.982;2023-04-24T00:46:36;5.78;;;4.25;;
8044;SDS011;4065;48.754;9.982;2023-04-24T00:50:00;3.60;;;3.30;;
8044;SDS011;4065;48.754;9.982;2023-04-24T00:53:22;2.78;;;2.53;;
8044;SDS011;4065;48.754;9.982;2023-04-24T00:56:44;3.55;;;2.47;;
8044;SDS011;4065;48.754;9.982;2023-04-24T01:00:07;4.00;;;3.40;;
8044;SDS011;4065;48.754;9.982;2023-04-24T01:03:32;4.75;;;3.30;;
8044;SDS011;4065;48.754;9.982;2023-04-24T01:06:58;4.45;;;2.65;;
8044;SDS011;4065;48.754;9.982;2023-04-24T01:10:20;3.20;;;2.90;;
8044;SDS011;4065;48.754;9.982;2023-04-24T01:13:42;4.70;;;2.97;;
8044;SDS011;4065;48.754;9.982;2023-04-24T01:17:04;3.05;;;2.58;;
8044;SDS011;4065;48.754;9.982;2023-04-24T01:20:26;2.75;;;2.55;;
8044;SDS011;4065;48.754;9.982;2023-04-24T01:23:52;3.20;;;2.58;;
8044;SDS011;4065;48.754;9.982;2023-04-24T01:27:14;2.72;;;2.53;;
8044;SDS011;4065;48.754;9.982;2023-04-24T01:30:36;2.70;;;2.50;;
8044;SDS011;4065;48.754;9.982;2023-04-24T01:33:58;3.55;;;2.58;;
8044;SDS011;4065;48.754;9.982;2023-04-24T01:37:20;2.72;;;2.53;;
8044;SDS011;4065;48.754;9.982;2023-04-24T01:40:43;4.32;;;2.72;;
8044;SDS011;4065;48.754;9.982;2023-04-24T01:44:05;3.22;;;2.65;;
8044;SDS011;4065;48.754;9.982;2023-04-24T01:47:27;5.05;;;2.92;;
8044;SDS011;4065;48.754;9.982;2023-04-24T01:50:49;2.83;;;2.63;;
8044;SDS011;4065;48.754;9.982;2023-04-24T01:54:11;42.30;;;21.52;;
8044;SDS011;4065;48.754;9.982;2023-04-24T01:57:35;25.45;;;13.63;;
8044;SDS011;4065;48.754;9.982;2023-04-24T02:00:57;12.32;;;7.72;;
8044;SDS011;4065;48.754;9.982;2023-04-24T02:04:19;8.27;;;5.32;;
8044;SDS011;4065;48.754;9.982;2023-04-24T02:07:41;10.10;;;6.68;;
8044;SDS011;4065;48.754;9.982;2023-04-24T02:11:03;14.43;;;8.07;;
8044;SDS011;4065;48.754;9.982;2023-04-24T02:14:26;26.88;;;13.43;;
8044;SDS011;4065;48.754;9.982;2023-04-24T02:17:48;17.83;;;9.65;;
8044;SDS011;4065;48.754;9.982;2023-04-24T02:21:10;8.77;;;5.93;;
8044;SDS011;4065;48.754;9.982;2023-04-24T02:24:32;6.75;;;4.68;;
8044;SDS011;4065;48.754;9.982;2023-04-24T02:27:54;6.28;;;4.82;;
8044;SDS011;4065;48.754;9.982;2023-04-24T02:31:17;11.85;;;6.88;;
8044;SDS011;4065;48.754;9.982;2023-04-24T02:34:39;21.05;;;11.35;;
8044;SDS011;4065;48.754;9.982;2023-04-24T02:38:01;7.28;;;4.75;;
8044;SDS011;4065;48.754;9.982;2023-04-24T02:41:23;3.08;;;2.72;;
8044;SDS011;4065;48.754;9.982;2023-04-24T02:44:45;7.20;;;4.35;;
8044;SDS011;4065;48.754;9.982;2023-04-24T02:48:08;8.80;;;5.32;;
8044;SDS011;4065;48.754;9.982;2023-04-24T02:51:30;3.08;;;2.75;;
8044;SDS011;4065;48.754;9.982;2023-04-24T02:54:52;2.97;;;2.60;;
8044;SDS011;4065;48.754;9.982;2023-04-24T02:58:15;3.83;;;3.45;;
8044;SDS011;4065;48.754;9.982;2023-04-24T03:01:37;2.30;;;2.20;;
8044;SDS011;4065;48.754;9.982;2023-04-24T03:05:00;4.72;;;3.05;;
8044;SDS011;4065;48.754;9.982;2023-04-24T03:08:23;2.85;;;2.30;;
8044;SDS011;4065;48.754;9.982;2023-04-24T03:11:45;3.33;;;2.58;;
8044;SDS011;4065;48.754;9.982;2023-04-24T03:15:09;3.97;;;3.58;;
8044;SDS011;4065;48.754;9.982;2023-04-24T03:18:31;11.25;;;7.18;;
8044;SDS011;4065;48.754;9.982;2023-04-24T03:21:54;9.00;;;5.80;;
8044;SDS011;4065;48.754;9.982;2023-04-24T03:25:16;7.13;;;5.07;;
8044;SDS011;4065;48.754;9.982;2023-04-24T03:28:38;47.67;;;25.05;;
8044;SDS011;4065;48.754;9.982;2023-04-24T03:32:01;37.70;;;20.15;;
8044;SDS011;4065;48.754;9.982;2023-04-24T03:35:23;27.48;;;15.88;;
8044;SDS011;4065;48.754;9.982;2023-04-24T03:38:46;35.15;;;16.70;;
8044;SDS011;4065;48.754;9.982;2023-04-24T03:42:08;48.03;;;23.70;;
8044;SDS011;4065;48.754;9.982;2023-04-24T03:45:30;37.88;;;19.45;;
8044;SDS011;4065;48.754;9.982;2023-04-24T03:48:52;16.70;;;10.50;;
8044;SDS011;4065;48.754;9.982;2023-04-24T03:52:14;14.82;;;8.32;;
8044;SDS011;4065;48.754;9.982;2023-04-24T03:55:37;10.30;;;5.70;;
8044;SDS011;4065;48.754;9.982;2023-04-24T03:58:59;8.10;;;5.75;;
8044;SDS011;4065;48.754;9.982;2023-04-24T04:02:21;10.48;;;6.20;;
8044;SDS011;4065;48.754;9.982;2023-04-24T04:05:43;8.95;;;5.85;;
8044;SDS011;4065;48.754;9.982;2023-04-24T04:09:05;5.72;;;4.63;;
8044;SDS011;4065;48.754;9.982;2023-04-24T04:12:28;6.30;;;5.18;;
8044;SDS011;4065;48.754;9.982;2023-04-24T04:15:50;6.07;;;4.50;;
8044;SDS011;4065;48.754;9.982;2023-04-24T04:19:12;7.68;;;4.32;;
8044;SDS011;4065;48.754;9.982;2023-04-24T04:22:34;6.05;;;4.10;;
8044;SDS011;4065;48.754;9.982;2023-04-24T04:25:59;9.15;;;4.25;;
8044;SDS011;4065;48.754;9.982;2023-04-24T04:29:23;4.85;;;4.00;;
8044;SDS011;4065;48.754;9.982;2023-04-24T04:32:46;8.38;;;4.20;;
8044;SDS011;4065;48.754;9.982;2023-04-24T04:36:08;4.38;;;3.83;;
8044;SDS011;4065;48.754;9.982;2023-04-24T04:39:30;5.25;;;3.78;;
8044;SDS011;4065;48.754;9.982;2023-04-24T04:42:53;4.88;;;3.35;;
8044;SDS011;4065;48.754;9.982;2023-04-24T04:46:16;4.55;;;3.75;;
8044;SDS011;4065;48.754;9.982;2023-04-24T04:49:38;4.78;;;3.30;;
8044;SDS011;4065;48.754;9.982;2023-04-24T04:53:01;4.38;;;3.45;;
8044;SDS011;4065;48.754;9.982;2023-04-24T04:56:23;3.42;;;2.83;;
8044;SDS011;4065;48.754;9.982;2023-04-24T04:59:45;3.42;;;3.10;;
8044;SDS011;4065;48.754;9.982;2023-04-24T05:03:10;3.85;;;2.97;;
8044;SDS011;4065;48.754;9.982;2023-04-24T05:06:32;3.05;;;2.63;;
8044;SDS011;4065;48.754;9.982;2023-04-24T05:09:57;3.05;;;2.78;;
8044;SDS011;4065;48.754;9.982;2023-04-24T05:13:19;3.08;;;2.88;;
8044;SDS011;4065;48.754;9.982;2023-04-24T05:16:41;3.38;;;3.08;;
8044;SDS011;4065;48.754;9.982;2023-04-24T05:20:08;3.10;;;2.80;;
8044;SDS011;4065;48.754;9.982;2023-04-24T05:23:30;2.78;;;2.53;;
8044;SDS011;4065;48.754;9.982;2023-04-24T05:26:52;2.78;;;2.50;;
8044;SDS011;4065;48.754;9.982;2023-04-24T05:30:15;4.47;;;2.60;;
8044;SDS011;4065;48.754;9.982;2023-04-24T05:33:37;2.70;;;2.50;;
8044;SDS011;4065;48.754;9.982;2023-04-24T05:37:01;56.72;;;25.65;;
8044;SDS011;4065;48.754;9.982;2023-04-24T05:40:23;5.50;;;3.88;;
8044;SDS011;4065;48.754;9.982;2023-04-24T05:43:45;4.80;;;3.55;;
8044;SDS011;4065;48.754;9.982;2023-04-24T05:47:07;4.88;;;3.50;;
8044;SDS011;4065;48.754;9.982;2023-04-24T05:50:30;3.60;;;3.33;;
8044;SDS011;4065;48.754;9.982;2023-04-24T05:53:53;5.57;;;3.60;;
8044;SDS011;4065;48.754;9.982;2023-04-24T05:57:15;4.03;;;3.72;;
8044;SDS011;4065;48.754;9.982;2023-04-24T06:00:37;4.05;;;3.70;;
8044;SDS011;4065;48.754;9.982;2023-04-24T06:04:00;4.82;;;4.07;;
8044;SDS011;4065;48.754;9.982;2023-04-24T06:07:22;4.75;;;3.40;;
8044;SDS011;4065;48.754;9.982;2023-04-24T06:10:45;3.78;;;3.38;;
8044;SDS011;4065;48.754;9.982;2023-04-24T06:14:07;3.72;;;3.42;;
8044;SDS011;4065;48.754;9.982;2023-04-24T06:17:29;4.95;;;4.55;;
8044;SDS011;4065;48.754;9.982;2023-04-24T06:20:51;5.10;;;4.60;;
8044;SDS011;4065;48.754;9.982;2023-04-24T06:24:13;4.32;;;3.83;;
8044;SDS011;4065;48.754;9.982;2023-04-24T06:27:39;5.50;;;4.63;;
8044;SDS011;4065;48.754;9.982;2023-04-24T06:31:01;5.07;;;4.20;;
8044;SDS011;4065;48.754;9.982;2023-04-24T06:34:23;4.53;;;4.13;;
8044;SDS011;4065;48.754;9.982;2023-04-24T06:37:45;6.03;;;4.35;;
8044;SDS011;4065;48.754;9.982;2023-04-24T06:41:09;5.15;;;3.97;;
8044;SDS011;4065;48.754;9.982;2023-04-24T06:44:32;4.40;;;4.10;;
8044;SDS011;4065;48.754;9.982;2023-04-24T06:47:58;6.10;;;4.30;;
8044;SDS011;4065;48.754;9.982;2023-04-24T06:51:20;8.77;;;3.95;;
8044;SDS011;4065;48.754;9.982;2023-04-24T06:54:41;5.50;;;4.60;;
8044;SDS011;4065;48.754;9.982;2023-04-24T06:58:04;6.30;;;4.43;;
8044;SDS011;4065;48.754;9.982;2023-04-24T07:01:27;4.38;;;3.95;;
8044;SDS011;4065;48.754;9.982;2023-04-24T07:04:49;4.90;;;4.50;;
8044;SDS011;4065;48.754;9.982;2023-04-24T07:08:11;4.60;;;4.20;;
8044;SDS011;4065;48.754;9.982;2023-04-24T07:11:37;6.00;;;4.60;;
8044;SDS011;4065;48.754;9.982;2023-04-24T07:15:01;5.18;;;4.75;;
8044;SDS011;4065;48.754;9.982;2023-04-24T07:18:25;4.45;;;4.05;;
8044;SDS011;4065;48.754;9.982;2023-04-24T07:21:46;4.60;;;4.20;;
8044;SDS011;4065;48.754;9.982;2023-04-24T07:25:09;4.82;;;4.32;;
8044;SDS011;4065;48.754;9.982;2023-04-24T07:28:31;4.30;;;4.00;;
8044;SDS011;4065;48.754;9.982;2023-04-24T07:31:53;6.13;;;4.32;;
8044;SDS011;4065;48.754;9.982;2023-04-24T07:35:18;6.00;;;5.05;;
8044;SDS011;4065;48.754;9.982;2023-04-24T07:38:41;7.47;;;4.70;;
8044;SDS011;4065;48.754;9.982;2023-04-24T07:42:04;5.45;;;4.57;;
8044;SDS011;4065;48.754;9.982;2023-04-24T07:45:26;5.35;;;4.65;;
8044;SDS011;4065;48.754;9.982;2023-04-24T07:48:48;6.30;;;4.90;;
8044;SDS011;4065;48.754;9.982;2023-04-24T07:52:12;5.32;;;4.80;;
8044;SDS011;4065;48.754;9.982;2023-04-24T07:55:34;5.00;;;4.60;;
8044;SDS011;4065;48.754;9.982;2023-04-24T07:58:56;5.68;;;5.20;;
8044;SDS011;4065;48.754;9.982;2023-04-24T08:02:18;4.80;;;4.32;;
8044;SDS011;4065;48.754;9.982;2023-04-24T08:05:40;7.07;;;5.72;;
8044;SDS011;4065;48.754;9.982;2023-04-24T08:09:04;9.82;;;8.90;;
8044;SDS011;4065;48.754;9.982;2023-04-24T08:12:29;6.68;;;5.97;;
8044;SDS011;4065;48.754;9.982;2023-04-24T08:15:51;6.88;;;5.00;;
8044;SDS011;4065;48.754;9.982;2023-04-24T08:19:13;6.45;;;4.85;;
8044;SDS011;4065;48.754;9.982;2023-04-24T08:22:35;5.03;;;4.50;;
8044;SDS011;4065;48.754;9.982;2023-04-24T08:25:58;4.57;;;4.18;;
8044;SDS011;4065;48.754;9.982;2023-04-24T08:29:20;4.50;;;4.10;;
8044;SDS011;4065;48.754;9.982;2023-04-24T08:32:42;4.47;;;4.07;;
8044;SDS011;4065;48.754;9.982;2023-04-24T08:36:07;5.63;;;4.18;;
8044;SDS011;4065;48.754;9.982;2023-04-24T08:39:29;4.20;;;3.80;;
8044;SDS011;4065;48.754;9.982;2023-04-24T08:42:52;6.07;;;5.47;;
8044;SDS011;4065;48.754;9.982;2023-04-24T08:46:16;7.68;;;6.97;;
8044;SDS011;4065;48.754;9.982;2023-04-24T08:49:38;6.13;;;5.63;;
8044;SDS011;4065;48.754;9.982;2023-04-24T08:53:00;17.42;;;15.63;;
8044;SDS011;4065;48.754;9.982;2023-04-24T08:56:22;11.52;;;10.45;;
8044;SDS011;4065;48.754;9.982;2023-04-24T08:59:46;6.90;;;6.30;;
8044;SDS011;4065;48.754;9.982;2023-04-24T09:03:08;5.03;;;4.63;;
8044;SDS011;4065;48.754;9.982;2023-04-24T09:06:31;4.90;;;4.50;;
8044;SDS011;4065;48.754;9.982;2023-04-24T09:09:53;5.55;;;4.40;;
8044;SDS011;4065;48.754;9.982;2023-04-24T09:13:15;4.15;;;3.85;;
8044;SDS011;4065;48.754;9.982;2023-04-24T09:16:39;4.07;;;3.75;;
8044;SDS011;4065;48.754;9.982;2023-04-24T09:20:01;4.68;;;4.07;;
8044;SDS011;4065;48.754;9.982;2023-04-24T09:23:27;4.40;;;3.78;;
8044;SDS011;4065;48.754;9.982;2023-04-24T09:26:55;4.32;;;3.92;;
8044;SDS011;4065;48.754;9.982;2023-04-24T09:30:20;4.63;;;3.63;;
8044;SDS011;4065;48.754;9.982;2023-04-24T09:33:48;3.42;;;3.22;;
8044;SDS011;4065;48.754;9.982;2023-04-24T09:37:25;3.60;;;3.30;;
8044;SDS011;4065;48.754;9.982;2023-04-24T09:40:49;4.57;;;3.22;;
8044;SDS011;4065;48.754;9.982;2023-04-24T09:44:11;4.05;;;3.60;;
8044;SDS011;4065;48.754;9.982;2023-04-24T09:47:35;3.72;;;3.42;;
8044;SDS011;4065;48.754;9.982;2023-04-24T09:50:59;8.35;;;6.05;;
8044;SDS011;4065;48.754;9.982;2023-04-24T09:54:22;4.47;;;4.07;;
8044;SDS011;4065;48.754;9.982;2023-04-24T09:57:52;4.07;;;3.65;;
8044;SDS011;4065;48.754;9.982;2023-04-24T10:01:15;3.60;;;3.30;;
8044;SDS011;4065;48.754;9.982;2023-04-24T10:04:37;4.57;;;3.50;;
8044;SDS011;4065;48.754;9.982;2023-04-24T10:08:02;4.10;;;3.70;;
8044;SDS011;4065;48.754;9.982;2023-04-24T10:11:25;4.43;;;3.35;;
8044;SDS011;4065;48.754;9.982;2023-04-24T10:14:48;4.82;;;3.42;;
8044;SDS011;4065;48.754;9.982;2023-04-24T10:18:17;3.50;;;3.15;;
8044;SDS011;4065;48.754;9.982;2023-04-24T10:21:39;3.20;;;2.90;;
8044;SDS011;4065;48.754;9.982;2023-04-24T10:25:08;3.38;;;3.08;;
8044;SDS011;4065;48.754;9.982;2023-04-24T10:28:30;7.82;;;7.07;;
8044;SDS011;4065;48.754;9.982;2023-04-24T10:31:53;3.85;;;3.53;;
8044;SDS011;4065;48.754;9.982;2023-04-24T10:35:15;3.40;;;3.10;;
8044;SDS011;4065;48.754;9.982;2023-04-24T10:38:38;3.33;;;3.00;;
8044;SDS011;4065;48.754;9.982;2023-04-24T10:42:03;2.90;;;2.60;;
8044;SDS011;4065;48.754;9.982;2023-04-24T10:45:36;3.05;;;2.72;;
8044;SDS011;4065;48.754;9.982;2023-04-24T10:48:59;3.40;;;3.10;;
8044;SDS011;4065;48.754;9.982;2023-04-24T10:56:07;3.45;;;3.25;;
8044;SDS011;4065;48.754;9.982;2023-04-24T10:59:35;3.42;;;3.13;;
8044;SDS011;4065;48.754;9.982;2023-04-24T11:02:57;2.90;;;2.70;;
8044;SDS011;4065;48.754;9.982;2023-04-24T11:06:19;2.92;;;2.72;;
8044;SDS011;4065;48.754;9.982;2023-04-24T11:09:57;2.80;;;2.60;;
8044;SDS011;4065;48.754;9.982;2023-04-24T11:13:24;4.00;;;3.00;;
8044;SDS011;4065;48.754;9.982;2023-04-24T11:16:52;4.03;;;3.10;;
8044;SDS011;4065;48.754;9.982;2023-04-24T11:20:16;3.67;;;2.97;;
8044;SDS011;4065;48.754;9.982;2023-04-24T11:23:39;3.65;;;3.33;;
8044;SDS011;4065;48.754;9.982;2023-04-24T11:27:05;4.25;;;3.20;;
8044;SDS011;4065;48.754;9.982;2023-04-24T11:30:29;3.00;;;2.58;;
8044;SDS011;4065;48.754;9.982;2023-04-24T11:33:52;2.65;;;2.45;;
8044;SDS011;4065;48.754;9.982;2023-04-24T11:37:15;2.78;;;2.58;;
8044;SDS011;4065;48.754;9.982;2023-04-24T11:40:37;2.70;;;2.40;;
8044;SDS011;4065;48.754;9.982;2023-04-24T11:44:00;4.70;;;2.50;;
8044;SDS011;4065;48.754;9.982;2023-04-24T11:47:29;2.63;;;2.20;;
8044;SDS011;4065;48.754;9.982;2023-04-24T11:50:52;4.50;;;2.58;;
8044;SDS011;4065;48.754;9.982;2023-04-24T11:54:14;2.63;;;2.38;;
8044;SDS011;4065;48.754;9.982;2023-04-24T11:57:36;4.80;;;2.70;;
8044;SDS011;4065;48.754;9.982;2023-04-24T12:00:58;3.90;;;2.67;;
8044;SDS011;4065;48.754;9.982;2023-04-24T12:04:21;4.40;;;2.40;;
8044;SDS011;4065;48.754;9.982;2023-04-24T12:07:44;2.65;;;2.45;;
8044;SDS011;4065;48.754;9.982;2023-04-24T12:11:06;2.42;;;2.20;;
8044;SDS011;4065;48.754;9.982;2023-04-24T12:14:28;2.60;;;2.40;;
8044;SDS011;4065;48.754;9.982;2023-04-24T12:17:51;2.45;;;2.08;;
8044;SDS011;4065;48.754;9.982;2023-04-24T12:21:20;2.15;;;2.03;;
8044;SDS011;4065;48.754;9.982;2023-04-24T12:25:00;2.20;;;2.10;;
8044;SDS011;4065;48.754;9.982;2023-04-24T12:28:23;2.95;;;1.98;;
8044;SDS011;4065;48.754;9.982;2023-04-24T12:31:45;2.60;;;2.40;;
8044;SDS011;4065;48.754;9.982;2023-04-24T12:35:07;2.38;;;2.17;;
8044;SDS011;4065;48.754;9.982;2023-04-24T12:38:30;3.97;;;2.50;;
8044;SDS011;4065;48.754;9.982;2023-04-24T12:41:56;5.60;;;4.05;;
8044;SDS011;4065;48.754;9.982;2023-04-24T12:45:18;38.50;;;17.58;;
8044;SDS011;4065;48.754;9.982;2023-04-24T12:48:43;7.43;;;4.80;;
8044;SDS011;4065;48.754;9.982;2023-04-24T12:52:05;7.53;;;4.70;;
8044;SDS011;4065;48.754;9.982;2023-04-24T12:55:30;4.28;;;3.83;;
8044;SDS011;4065;48.754;9.982;2023-04-24T12:58:53;4.18;;;3.53;;
8044;SDS011;4065;48.754;9.982;2023-04-24T13:02:15;3.90;;;2.83;;
8044;SDS011;4065;48.754;9.982;2023-04-24T13:05:38;5.45;;;4.45;;
8044;SDS011;4065;48.754;9.982;2023-04-24T13:09:00;5.20;;;4.60;;
8044;SDS011;4065;48.754;9.982;2023-04-24T13:12:22;3.40;;;3.05;;
8044;SDS011;4065;48.754;9.982;2023-04-24T13:15:47;4.70;;;4.30;;
8044;SDS011;4065;48.754;9.982;2023-04-24T13:19:09;7.45;;;3.80;;
8044;SDS011;4065;48.754;9.982;2023-04-24T13:22:31;4.93;;;3.97;;
8044;SDS011;4065;48.754;9.982;2023-04-24T13:25:53;3.88;;;3.58;;
8044;SDS011;4065;48.754;9.982;2023-04-24T13:29:19;6.22;;;5.50;;
8044;SDS011;4065;48.754;9.982;2023-04-24T13:32:42;3.70;;;3.40;;
8044;SDS011;4065;48.754;9.982;2023-04-24T13:36:04;3.67;;;3.38;;
8044;SDS011;4065;48.754;9.982;2023-04-24T13:39:26;4.03;;;3.08;;
8044;SDS011;4065;48.754;9.982;2023-04-24T13:42:48;4.50;;;3.58;;
8044;SDS011;4065;48.754;9.982;2023-04-24T13:46:10;3.35;;;3.05;;
8044;SDS011;4065;48.754;9.982;2023-04-24T13:49:34;4.45;;;3.90;;
8044;SDS011;4065;48.754;9.982;2023-04-24T13:52:56;6.00;;;4.72;;
8044;SDS011;4065;48.754;9.982;2023-04-24T13:56:20;6.43;;;4.25;;
8044;SDS011;4065;48.754;9.982;2023-04-24T13:59:43;4.45;;;3.60;;
8044;SDS011;4065;48.754;9.982;2023-04-24T14:03:05;4.70;;;4.20;;
8044;SDS011;4065;48.754;9.982;2023-04-24T14:06:29;6.10;;;3.80;;
8044;SDS011;4065;48.754;9.982;2023-04-24T14:09:52;3.92;;;3.63;;
8044;SDS011;4065;48.754;9.982;2023-04-24T14:13:14;4.05;;;3.30;;
8044;SDS011;4065;48.754;9.982;2023-04-24T14:16:36;3.97;;;3.67;;
8044;SDS011;4065;48.754;9.982;2023-04-24T14:19:58;4.63;;;4.13;;
8044;SDS011;4065;48.754;9.982;2023-04-24T14:23:22;4.38;;;3.72;;
8044;SDS011;4065;48.754;9.982;2023-04-24T14:26:44;4.22;;;3.83;;
8044;SDS011;4065;48.754;9.982;2023-04-24T14:30:06;7.40;;;5.38;;
8044;SDS011;4065;48.754;9.982;2023-04-24T14:33:29;4.20;;;3.70;;
8044;SDS011;4065;48.754;9.982;2023-04-24T14:36:52;4.80;;;3.90;;
8044;SDS011;4065;48.754;9.982;2023-04-24T14:40:15;5.35;;;4.13;;
8044;SDS011;4065;48.754;9.982;2023-04-24T14:43:37;4.85;;;4.30;;
8044;SDS011;4065;48.754;9.982;2023-04-24T14:46:59;3.75;;;3.45;;
8044;SDS011;4065;48.754;9.982;2023-04-24T14:50:21;3.20;;;2.90;;
8044;SDS011;4065;48.754;9.982;2023-04-24T14:53:44;3.55;;;3.25;;
8044;SDS011;4065;48.754;9.982;2023-04-24T14:57:08;5.90;;;3.20;;
8044;SDS011;4065;48.754;9.982;2023-04-24T15:00:31;3.10;;;2.90;;
8044;SDS011;4065;48.754;9.982;2023-04-24T15:03:53;3.97;;;3.67;;
8044;SDS011;4065;48.754;9.982;2023-04-24T15:07:15;8.82;;;6.45;;
8044;SDS011;4065;48.754;9.982;2023-04-24T15:10:37;8.05;;;6.03;;
8044;SDS011;4065;48.754;9.982;2023-04-24T15:14:00;3.85;;;3.55;;
8044;SDS011;4065;48.754;9.982;2023-04-24T15:17:22;6.93;;;4.60;;
8044;SDS011;4065;48.754;9.982;2023-04-24T15:20:44;18.15;;;12.43;;
8044;SDS011;4065;48.754;9.982;2023-04-24T15:24:06;11.85;;;9.13;;
8044;SDS011;4065;48.754;9.982;2023-04-24T15:27:38;7.85;;;6.00;;
8044;SDS011;4065;48.754;9.982;2023-04-24T15:31:02;9.90;;;8.48;;
8044;SDS011;4065;48.754;9.982;2023-04-24T15:34:24;5.95;;;4.93;;
8044;SDS011;4065;48.754;9.982;2023-04-24T15:37:46;4.75;;;4.25;;
8044;SDS011;4065;48.754;9.982;2023-04-24T15:41:08;4.80;;;4.40;;
8044;SDS011;4065;48.754;9.982;2023-04-24T15:44:30;4.38;;;3.97;;
8044;SDS011;4065;48.754;9.982;2023-04-24T15:47:54;4.13;;;3.83;;
8044;SDS011;4065;48.754;9.982;2023-04-24T15:51:16;5.05;;;4.60;;
8044;SDS011;4065;48.754;9.982;2023-04-24T15:54:38;4.40;;;3.83;;
8044;SDS011;4065;48.754;9.982;2023-04-24T15:58:00;4.05;;;3.75;;
8044;SDS011;4065;48.754;9.982;2023-04-24T16:01:22;6.57;;;4.18;;
8044;SDS011;4065;48.754;9.982;2023-04-24T16:04:49;4.78;;;4.35;;
8044;SDS011;4065;48.754;9.982;2023-04-24T16:08:14;4.40;;;4.05;;
8044;SDS011;4065;48.754;9.982;2023-04-24T16:11:36;4.78;;;4.38;;
8044;SDS011;4065;48.754;9.982;2023-04-24T16:15:00;3.90;;;3.60;;
8044;SDS011;4065;48.754;9.982;2023-04-24T16:18:22;3.80;;;3.50;;
8044;SDS011;4065;48.754;9.982;2023-04-24T16:21:45;4.38;;;3.97;;
8044;SDS011;4065;48.754;9.982;2023-04-24T16:25:08;3.38;;;3.08;;
8044;SDS011;4065;48.754;9.982;2023-04-24T16:28:30;5.55;;;3.85;;
8044;SDS011;4065;48.754;9.982;2023-04-24T16:31:53;4.43;;;3.88;;
8044;SDS011;4065;48.754;9.982;2023-04-24T16:35:15;4.43;;;3.70;;
8044;SDS011;4065;48.754;9.982;2023-04-24T16:38:38;5.20;;;4.05;;
8044;SDS011;4065;48.754;9.982;2023-04-24T16:42:00;7.88;;;4.50;;
8044;SDS011;4065;48.754;9.982;2023-04-24T16:45:22;4.18;;;3.78;;
8044;SDS011;4065;48.754;9.982;2023-04-24T16:48:44;4.88;;;4.38;;
8044;SDS011;4065;48.754;9.982;2023-04-24T16:52:07;7.07;;;5.95;;
8044;SDS011;4065;48.754;9.982;2023-04-24T16:55:30;6.95;;;5.88;;
8044;SDS011;4065;48.754;9.982;2023-04-24T16:58:52;5.97;;;5.47;;
8044;SDS011;4065;48.754;9.982;2023-04-24T17:02:14;10.23;;;7.72;;
8044;SDS011;4065;48.754;9.982;2023-04-24T17:05:36;6.97;;;5.65;;
8044;SDS011;4065;48.754;9.982;2023-04-24T17:08:58;6.93;;;5.10;;
8044;SDS011;4065;48.754;9.982;2023-04-24T17:12:21;8.57;;;5.78;;
8044;SDS011;4065;48.754;9.982;2023-04-24T17:15:43;6.35;;;4.38;;
8044;SDS011;4065;48.754;9.982;2023-04-24T17:19:06;5.85;;;4.07;;
8044;SDS011;4065;48.754;9.982;2023-04-24T17:22:27;6.18;;;5.30;;
8044;SDS011;4065;48.754;9.982;2023-04-24T17:25:49;8.40;;;7.55;;
8044;SDS011;4065;48.754;9.982;2023-04-24T17:29:13;7.57;;;6.90;;
8044;SDS011;4065;48.754;9.982;2023-04-24T17:32:35;7.47;;;6.78;;
8044;SDS011;4065;48.754;9.982;2023-04-24T17:35:57;18.27;;;16.58;;
8044;SDS011;4065;48.754;9.982;2023-04-24T17:39:21;8.57;;;7.72;;
8044;SDS011;4065;48.754;9.982;2023-04-24T17:42:43;9.85;;;8.95;;
8044;SDS011;4065;48.754;9.982;2023-04-24T17:46:06;5.45;;;4.63;;
8044;SDS011;4065;48.754;9.982;2023-04-24T17:49:28;5.65;;;5.15;;
8044;SDS011;4065;48.754;9.982;2023-04-24T17:52:50;6.80;;;6.10;;
8044;SDS011;4065;48.754;9.982;2023-04-24T17:56:14;7.20;;;6.57;;
8044;SDS011;4065;48.754;9.982;2023-04-24T17:59:37;4.47;;;4.07;;
8044;SDS011;4065;48.754;9.982;2023-04-24T18:03:00;5.25;;;4.78;;
8044;SDS011;4065;48.754;9.982;2023-04-24T18:06:23;5.13;;;4.65;;
8044;SDS011;4065;48.754;9.982;2023-04-24T18:09:46;6.28;;;5.68;;
8044;SDS011;4065;48.754;9.982;2023-04-24T18:13:08;6.03;;;5.53;;
8044;SDS011;4065;48.754;9.982;2023-04-24T18:16:30;6.03;;;4.97;;
8044;SDS011;4065;48.754;9.982;2023-04-24T18:19:53;10.20;;;9.25;;
8044;SDS011;4065;48.754;9.982;2023-04-24T18:23:15;7.50;;;6.80;;
8044;SDS011;4065;48.754;9.982;2023-04-24T18:26:37;6.70;;;6.05;;
8044;SDS011;4065;48.754;9.982;2023-04-24T18:29:59;6.80;;;6.13;;
8044;SDS011;4065;48.754;9.982;2023-04-24T18:33:22;6.03;;;5.43;;
8044;SDS011;4065;48.754;9.982;2023-04-24T18:36:46;5.78;;;5.18;;
8044;SDS011;4065;48.754;9.982;2023-04-24T18:40:08;6.28;;;5.68;;
8044;SDS011;4065;48.754;9.982;2023-04-24T18:43:31;6.65;;;5.45;;
8044;SDS011;4065;48.754;9.982;2023-04-24T18:46:52;8.52;;;7.28;;
8044;SDS011;4065;48.754;9.982;2023-04-24T18:50:14;10.48;;;7.53;;
8044;SDS011;4065;48.754;9.982;2023-04-24T18:53:40;7.28;;;6.63;;
8044;SDS011;4065;48.754;9.982;2023-04-24T18:57:02;13.07;;;10.10;;
8044;SDS011;4065;48.754;9.982;2023-04-24T19:00:27;36.00;;;20.15;;
8044;SDS011;4065;48.754;9.982;2023-04-24T19:03:49;17.77;;;11.30;;
8044;SDS011;4065;48.754;9.982;2023-04-24T19:07:11;22.42;;;10.65;;
8044;SDS011;4065;48.754;9.982;2023-04-24T19:10:34;16.05;;;9.02;;
8044;SDS011;4065;48.754;9.982;2023-04-24T19:13:56;10.35;;;7.45;;
8044;SDS011;4065;48.754;9.982;2023-04-24T19:17:22;36.00;;;21.33;;
8044;SDS011;4065;48.754;9.982;2023-04-24T19:20:44;37.47;;;19.35;;
8044;SDS011;4065;48.754;9.982;2023-04-24T19:24:06;37.10;;;18.35;;
8044;SDS011;4065;48.754;9.982;2023-04-24T19:27:31;24.67;;;14.10;;
8044;SDS011;4065;48.754;9.982;2023-04-24T19:30:53;18.80;;;11.52;;
8044;SDS011;4065;48.754;9.982;2023-04-24T19:34:17;11.57;;;8.75;;
8044;SDS011;4065;48.754;9.982;2023-04-24T19:37:39;12.80;;;8.77;;
8044;SDS011;4065;48.754;9.982;2023-04-24T19:41:02;9.20;;;7.32;;
8044;SDS011;4065;48.754;9.982;2023-04-24T19:44:25;7.80;;;6.80;;
8044;SDS011;4065;48.754;9.982;2023-04-24T19:47:47;8.75;;;7.03;;
8044;SDS011;4065;48.754;9.982;2023-04-24T19:51:09;8.88;;;6.50;;
8044;SDS011;4065;48.754;9.982;2023-04-24T19:54:31;7.78;;;6.30;;
8044;SDS011;4065;48.754;9.982;2023-04-24T19:57:53;6.05;;;5.38;;
8044;SDS011;4065;48.754;9.982;2023-04-24T20:01:16;7.88;;;6.35;;
8044;SDS011;4065;48.754;9.982;2023-04-24T20:04:38;8.30;;;7.47;;
8044;SDS011;4065;48.754;9.982;2023-04-24T20:08:01;9.05;;;7.78;;
8044;SDS011;4065;48.754;9.982;2023-04-24T20:11:22;9.07;;;8.18;;
8044;SDS011;4065;48.754;9.982;2023-04-24T20:14:45;9.27;;;7.32;;
8044;SDS011;4065;48.754;9.982;2023-04-24T20:18:08;6.40;;;5.80;;
8044;SDS011;4065;48.754;9.982;2023-04-24T20:21:30;5.55;;;4.80;;
8044;SDS011;4065;48.754;9.982;2023-04-24T20:24:53;5.85;;;5.20;;
8044;SDS011;4065;48.754;9.982;2023-04-24T20:28:15;5.18;;;4.68;;
8044;SDS011;4065;48.754;9.982;2023-04-24T20:31:37;5.30;;;4.57;;
8044;SDS011;4065;48.754;9.982;2023-04-24T20:35:00;5.05;;;4.40;;
8044;SDS011;4065;48.754;9.982;2023-04-24T20:38:22;5.00;;;4.30;;
8044;SDS011;4065;48.754;9.982;2023-04-24T20:41:45;6.05;;;4.20;;
8044;SDS011;4065;48.754;9.982;2023-04-24T20:45:07;5.57;;;5.00;;
8044;SDS011;4065;48.754;9.982;2023-04-24T20:48:30;7.93;;;4.65;;
8044;SDS011;4065;48.754;9.982;2023-04-24T20:51:54;4.95;;;4.45;;
8044;SDS011;4065;48.754;9.982;2023-04-24T20:55:18;5.22;;;4.15;;
8044;SDS011;4065;48.754;9.982;2023-04-24T20:58:41;4.90;;;4.35;;
8044;SDS011;4065;48.754;9.982;2023-04-24T21:02:06;4.45;;;4.03;;